Time;durP1;ratioP1;P1;durP2;ratioP2;P2;SDS_P1;SDS_P2;PMS_P1;PMS_P2;Temp;Humidity;BMP_temperature;BMP_pressure;BME280_temperature;BME280_humidity;BME280_pressure;Samples;Min_cycle;Max_cycle;Signal;HPM_P1;HPM_P2
2021/09/24 00:01:08;;;;;;;5.55;2.13;;;;;;;24.20;45.65;101516.28;4995322;28;20034;-61
2021/09/24 00:03:34;;;;;;;3.88;2.13;;;;;;;24.19;45.75;101516.50;4993887;28;20053;-61
2021/09/24 00:05:59;;;;;;;8.07;2.42;;;;;;;24.23;45.67;101515.06;4994643;28;20034;-61
2021/09/24 00:08:25;;;;;;;4.97;2.55;;;;;;;24.24;45.68;101519.47;4995863;28;20034;-61
2021/09/24 00:10:51;;;;;;;5.00;2.00;;;;;;;24.21;45.58;101514.41;4994673;28;20032;-62
2021/09/24 00:13:16;;;;;;;3.78;2.88;;;;;;;24.22;45.82;101505.16;4994903;28;20034;-62
2021/09/24 00:15:41;;;;;;;4.30;1.90;;;;;;;24.24;45.24;101519.47;4994958;28;20415;-62
2021/09/24 00:18:07;;;;;;;9.13;1.98;;;;;;;24.23;46.12;101506.84;4993795;28;20018;-61
2021/09/24 00:20:34;;;;;;;7.15;2.30;;;;;;;24.20;45.68;101510.00;4994770;28;20447;-62
2021/09/24 00:22:59;;;;;;;7.50;2.70;;;;;;;24.18;46.22;101512.06;4995051;28;20022;-62
2021/09/24 00:25:25;;;;;;;4.68;2.30;;;;;;;24.21;45.42;101512.50;4994635;28;20027;-62
2021/09/24 00:27:50;;;;;;;4.28;2.42;;;;;;;24.22;45.73;101508.75;4993661;28;20037;-62
2021/09/24 00:30:16;;;;;;;2.13;1.92;;;;;;;24.20;46.29;101510.00;4994923;28;20475;-62
2021/09/24 00:32:41;;;;;;;6.15;2.33;;;;;;;24.21;46.07;101509.78;4994495;28;20081;-62
2021/09/24 00:35:07;;;;;;;3.63;1.90;;;;;;;24.20;46.36;101501.78;4994627;28;20038;-61
2021/09/24 00:37:32;;;;;;;3.13;2.17;;;;;;;24.20;45.68;101507.25;4993418;28;20022;-62
2021/09/24 00:39:58;;;;;;;4.50;2.97;;;;;;;24.15;46.42;101498.78;4993312;28;20415;-61
2021/09/24 00:42:24;;;;;;;8.43;3.28;;;;;;;24.15;46.15;101501.50;4994480;28;20387;-62
2021/09/24 00:44:51;;;;;;;4.35;2.92;;;;;;;24.13;45.66;101509.09;4993603;28;20023;-62
2021/09/24 00:47:18;;;;;;;6.25;2.70;;;;;;;24.10;45.63;101506.75;4994246;28;20027;-62
2021/09/24 00:49:43;;;;;;;8.48;2.92;;;;;;;24.02;45.98;101495.94;4994333;28;20128;-61
2021/09/24 00:52:09;;;;;;;7.50;2.50;;;;;;;24.02;46.08;101504.13;4993028;28;20535;-61
2021/09/24 00:54:35;;;;;;;6.22;2.88;;;;;;;23.99;46.02;101501.78;4994308;28;20044;-61
2021/09/24 00:57:01;;;;;;;6.55;2.90;;;;;;;23.95;45.55;101500.53;4993201;28;20037;-61
2021/09/24 00:59:27;;;;;;;5.88;3.15;;;;;;;23.89;45.90;101499.44;4994121;28;20069;-62
2021/09/24 01:01:52;;;;;;;6.13;3.13;;;;;;;23.85;45.44;101502.75;4994226;28;20054;-62
2021/09/24 01:04:17;;;;;;;7.75;2.80;;;;;;;23.79;46.42;101490.72;4994239;28;20026;-61
2021/09/24 01:06:43;;;;;;;4.28;2.50;;;;;;;23.75;46.07;101493.03;4993278;28;20022;-61
2021/09/24 01:09:08;;;;;;;7.80;3.30;;;;;;;23.69;45.60;101493.81;4994379;28;20030;-62
2021/09/24 01:11:36;;;;;;;5.88;2.72;;;;;;;23.67;46.20;101486.84;4994213;28;20034;-62
2021/09/24 01:14:02;;;;;;;8.13;2.97;;;;;;;23.64;46.11;101493.56;4994490;28;20575;-62
2021/09/24 01:16:27;;;;;;;4.55;2.95;;;;;;;23.60;46.69;101489.53;4993964;28;20545;-61
2021/09/24 01:18:53;;;;;;;6.82;2.63;;;;;;;23.56;45.85;101487.38;4994108;28;20105;-61
2021/09/24 01:21:18;;;;;;;6.63;3.20;;;;;;;23.53;45.69;101494.09;4994269;28;20053;-62
2021/09/24 01:23:43;;;;;;;4.70;3.03;;;;;;;23.51;45.64;101484.38;4994068;28;20029;-62
2021/09/24 01:26:09;;;;;;;4.68;3.08;;;;;;;23.46;45.92;101479.50;4992699;28;20053;-61
2021/09/24 01:28:34;;;;;;;5.30;3.03;;;;;;;23.43;46.53;101479.03;4994003;28;20035;-61
2021/09/24 01:31:00;;;;;;;8.73;2.67;;;;;;;23.40;46.09;101477.56;4993967;28;20026;-61
2021/09/24 01:33:25;;;;;;;5.95;3.05;;;;;;;23.38;46.93;101485.13;4993809;28;20026;-61
2021/09/24 01:35:51;;;;;;;6.50;2.70;;;;;;;23.34;46.85;101478.31;4993752;28;20067;-62
2021/09/24 01:38:16;;;;;;;6.05;2.85;;;;;;;23.34;45.90;101477.50;4995379;28;20386;-62
2021/09/24 01:40:42;;;;;;;10.00;3.08;;;;;;;23.33;47.01;101486.72;4998008;28;20049;-61
2021/09/24 01:43:07;;;;;;;7.75;3.58;;;;;;;23.33;47.24;101482.09;4997958;28;20041;-62
2021/09/24 01:45:32;;;;;;;8.02;3.95;;;;;;;23.32;46.33;101485.00;4997729;28;20028;-62
2021/09/24 01:47:58;;;;;;;11.98;3.42;;;;;;;23.33;47.16;101486.72;4997530;28;20022;-61
2021/09/24 01:50:23;;;;;;;7.38;3.53;;;;;;;23.33;46.58;101482.09;4997630;28;20023;-61
2021/09/24 01:52:48;;;;;;;6.25;3.50;;;;;;;23.34;47.36;101486.50;4996434;28;20110;-61
2021/09/24 01:55:14;;;;;;;8.43;3.65;;;;;;;23.33;47.55;101475.78;4996672;28;20471;-62
2021/09/24 01:57:40;;;;;;;8.18;3.70;;;;;;;23.35;47.14;101477.28;4997514;28;20370;-61
2021/09/24 02:00:08;;;;;;;8.60;3.75;;;;;;;23.33;47.33;101470.31;4997514;28;20034;-62
2021/09/24 02:02:34;;;;;;;7.68;3.88;;;;;;;23.39;46.65;101480.50;4996990;28;20491;-61
2021/09/24 02:04:59;;;;;;;9.27;3.80;;;;;;;23.35;47.60;101474.53;4996186;28;20117;-62
2021/09/24 02:07:24;;;;;;;8.82;3.55;;;;;;;23.39;46.88;101473.16;4997423;28;20102;-62
2021/09/24 02:09:50;;;;;;;12.98;4.18;;;;;;;23.41;47.81;101476.53;4997402;28;20022;-62
2021/09/24 02:12:15;;;;;;;11.00;3.88;;;;;;;23.43;47.66;101476.31;4997009;28;20356;-61
2021/09/24 02:14:41;;;;;;;6.65;4.28;;;;;;;23.43;47.88;101479.91;4997067;28;20022;-63
2021/09/24 02:17:06;;;;;;;11.00;4.65;;;;;;;23.42;46.95;101472.72;4996987;28;20106;-62
2021/09/24 02:19:32;;;;;;;10.20;5.40;;;;;;;23.44;46.90;101478.88;4996881;28;20390;-62
2021/09/24 02:21:58;;;;;;;10.93;4.45;;;;;;;23.44;46.92;101467.94;4997209;28;20023;-62
2021/09/24 02:24:24;;;;;;;9.88;4.55;;;;;;;23.46;47.41;101462.25;4997042;28;20430;-61
2021/09/24 02:26:50;;;;;;;10.13;4.30;;;;;;;23.48;47.34;101462.91;4995744;28;20030;-61
2021/09/24 02:29:15;;;;;;;11.75;5.13;;;;;;;23.49;47.67;101470.06;4996829;28;20096;-62
2021/09/24 02:31:41;;;;;;;8.07;4.65;;;;;;;23.48;48.04;101468.38;4996781;28;20033;-61
2021/09/24 02:34:07;;;;;;;10.73;5.63;;;;;;;23.49;48.13;101461.84;4997246;28;20053;-61
2021/09/24 02:36:32;;;;;;;9.55;4.70;;;;;;;23.50;47.29;101461.69;4996904;28;20022;-61
2021/09/24 02:38:59;;;;;;;14.18;5.07;;;;;;;23.50;48.11;101458.94;5011876;28;20027;-61
2021/09/24 02:41:24;;;;;;;11.27;5.68;;;;;;;23.49;48.12;101449.03;4996744;28;20390;-61
2021/09/24 02:43:49;;;;;;;11.13;4.78;;;;;;;23.55;47.21;101456.44;4996985;28;20022;-62
2021/09/24 02:46:15;;;;;;;13.77;6.47;;;;;;;23.55;47.17;101459.19;4996394;28;20026;-62
2021/09/24 02:48:40;;;;;;;13.63;5.10;;;;;;;23.55;47.65;101458.34;4995957;28;20027;-62
2021/09/24 02:51:05;;;;;;;14.85;6.28;;;;;;;23.57;47.97;101456.22;4996396;28;20085;-62
2021/09/24 02:53:31;;;;;;;11.40;5.20;;;;;;;23.57;48.22;101457.09;4996265;28;20026;-62
2021/09/24 02:55:56;;;;;;;12.85;5.90;;;;;;;23.57;47.44;101456.22;4996373;28;20068;-61
2021/09/24 02:58:21;;;;;;;12.75;6.03;;;;;;;23.55;47.99;101447.38;4996094;28;20069;-62
2021/09/24 03:00:47;;;;;;;17.50;6.43;;;;;;;23.57;47.58;101459.81;4996382;28;20026;-61
2021/09/24 05:36:48;;;;;;;18.30;8.30;;;;;;;22.96;49.23;101471.41;4991732;28;20050;-62
2021/09/24 05:39:14;;;;;;;17.70;8.90;;;;;;;22.99;49.43;101479.22;4997134;28;20042;-62
2021/09/24 05:41:40;;;;;;;15.98;8.43;;;;;;;23.02;49.19;101478.84;4978056;28;20022;-61
2021/09/24 05:44:05;;;;;;;19.35;7.43;;;;;;;23.03;49.99;101480.53;4996329;28;20069;-61
2021/09/24 05:46:31;;;;;;;20.35;8.73;;;;;;;23.06;49.45;101480.16;4995119;28;20029;-61
2021/09/24 05:48:56;;;;;;;18.60;8.18;;;;;;;23.08;50.17;101472.59;4991078;28;20452;-61
2021/09/24 05:51:22;;;;;;;17.23;8.27;;;;;;;23.07;49.12;101469.03;4978497;28;20027;-62
2021/09/24 05:53:47;;;;;;;20.80;8.25;;;;;;;23.08;49.33;101475.34;4978166;28;20089;-61
2021/09/24 05:56:12;;;;;;;24.73;8.57;;;;;;;23.11;49.28;101472.22;4978004;28;20383;-61
2021/09/24 05:58:38;;;;;;;21.20;9.95;;;;;;;23.13;49.86;101470.13;4978526;28;20026;-61
2021/09/24 06:01:03;;;;;;;21.20;9.40;;;;;;;23.14;49.38;101472.66;4978515;28;20154;-61
2021/09/24 06:03:29;;;;;;;19.30;8.00;;;;;;;23.17;49.27;101474.19;4993521;28;20454;-61
2021/09/24 06:05:54;;;;;;;20.77;8.52;;;;;;;23.16;49.67;101475.19;4979087;28;20030;-62
2021/09/24 06:08:19;;;;;;;17.15;8.45;;;;;;;23.20;49.33;101479.22;4978176;28;20066;-61
2021/09/24 06:10:45;;;;;;;17.98;7.82;;;;;;;23.17;49.97;101474.19;4978362;28;20039;-62
2021/09/24 06:13:10;;;;;;;19.00;8.10;;;;;;;23.18;50.29;101473.97;4977710;28;20031;-63
2021/09/24 06:15:37;;;;;;;17.92;8.55;;;;;;;23.21;49.95;101478.19;4978680;28;20036;-63
2021/09/24 06:18:03;;;;;;;19.17;10.15;;;;;;;23.23;50.45;101478.84;4978690;28;20399;-62
2021/09/24 06:20:28;;;;;;;19.48;8.70;;;;;;;23.24;49.51;101472.34;4976801;28;20027;-63
2021/09/24 06:22:54;;;;;;;17.85;7.82;;;;;;;23.27;49.91;101479.28;4977382;28;20026;-62
2021/09/24 06:25:19;;;;;;;17.52;7.70;;;;;;;23.29;50.64;101477.19;4977125;28;20102;-62
2021/09/24 06:27:45;;;;;;;14.45;7.50;;;;;;;23.32;49.96;101483.13;4977725;28;20019;-63
2021/09/24 06:30:13;;;;;;;16.65;7.53;;;;;;;23.33;50.39;101471.16;4977378;28;20034;-63
2021/09/24 06:32:39;;;;;;;13.23;6.65;;;;;;;23.35;49.70;101474.53;4976867;28;20026;-62
2021/09/24 06:35:05;;;;;;;15.68;7.57;;;;;;;23.36;49.72;101468.03;4977480;28;20475;-62
2021/09/24 06:37:31;;;;;;;12.85;6.78;;;;;;;23.39;50.55;101464.94;4975901;28;20046;-62
2021/09/24 06:39:56;;;;;;;17.20;7.40;;;;;;;23.40;49.64;101466.63;4977306;28;20480;-63
2021/09/24 06:42:22;;;;;;;18.42;7.53;;;;;;;23.43;49.44;101471.69;4977428;28;20039;-62
2021/09/24 06:44:47;;;;;;;13.55;7.35;;;;;;;23.42;49.85;101464.53;4977185;28;20031;-62
2021/09/24 06:47:15;;;;;;;12.70;7.15;;;;;;;23.47;49.46;101461.22;4976392;28;20023;-63
2021/09/24 06:49:41;;;;;;;14.13;6.65;;;;;;;23.50;50.38;101464.41;4977411;28;20042;-62
2021/09/24 06:52:06;;;;;;;14.55;6.53;;;;;;;23.53;49.53;101472.22;4977162;28;20383;-62
2021/09/24 06:54:32;;;;;;;16.10;7.28;;;;;;;23.54;49.90;101465.69;4959664;28;20089;-62
2021/09/24 06:56:57;;;;;;;11.63;6.85;;;;;;;23.57;49.57;101461.72;4992355;28;20098;-63
2021/09/24 06:59:23;;;;;;;17.17;6.75;;;;;;;23.61;49.55;101457.53;4977126;28;20029;-63
2021/09/24 07:01:48;;;;;;;13.02;7.18;;;;;;;23.64;50.30;101463.47;4976725;28;20115;-63
2021/09/24 07:04:14;;;;;;;13.70;7.32;;;;;;;23.69;50.32;101455.50;4976910;28;20383;-63
2021/09/24 07:06:40;;;;;;;13.98;6.03;;;;;;;23.86;50.12;101456.03;4975669;28;20031;-63
2021/09/24 07:09:06;;;;;;;14.20;6.07;;;;;;;23.95;50.03;101454.00;4976842;28;20484;-63
2021/09/24 07:11:31;;;;;;;17.33;6.13;;;;;;;23.99;50.05;101449.78;4976733;28;20106;-63
2021/09/24 07:13:58;;;;;;;13.52;6.70;;;;;;;24.08;49.91;101459.53;4976522;28;20057;-63
2021/09/24 07:16:23;;;;;;;13.70;6.70;;;;;;;24.16;49.61;101459.41;4991832;28;20034;-62
2021/09/24 07:18:49;;;;;;;11.52;7.13;;;;;;;24.22;49.33;101464.06;4976939;28;20024;-63
2021/09/24 07:21:14;;;;;;;13.07;7.18;;;;;;;24.28;48.92;101455.91;4976528;28;20023;-63
2021/09/24 07:23:40;;;;;;;11.25;6.13;;;;;;;24.32;49.48;101467.28;4976581;28;20085;-64
2021/09/24 07:26:05;;;;;;;12.82;5.85;;;;;;;24.26;49.79;101465.38;4977682;28;20106;-63
2021/09/24 07:28:31;;;;;;;18.10;7.90;;;;;;;24.22;49.42;101462.19;4976409;28;20030;-63
2021/09/24 07:30:57;;;;;;;15.48;7.15;;;;;;;24.26;49.54;101457.97;4960239;28;20030;-63
2021/09/24 07:33:22;;;;;;;16.08;6.72;;;;;;;24.32;49.91;101475.50;4977543;28;20050;-63
2021/09/24 07:35:47;;;;;;;15.40;7.25;;;;;;;24.30;49.29;101469.38;4976137;28;20027;-62
2021/09/24 07:38:13;;;;;;;11.70;7.40;;;;;;;24.33;49.89;101468.97;4976288;28;20062;-63
2021/09/24 07:40:38;;;;;;;12.13;6.50;;;;;;;24.34;49.52;101476.97;4977833;28;20034;-63
2021/09/24 07:43:04;;;;;;;17.40;6.45;;;;;;;24.37;49.78;101477.63;4975977;28;20480;-63
2021/09/24 07:45:30;;;;;;;11.98;6.45;;;;;;;24.38;49.45;101471.94;4977710;28;20038;-63
2021/09/24 07:47:55;;;;;;;19.63;6.85;;;;;;;24.44;48.76;101465.66;4976399;28;20530;-62
2021/09/24 07:50:20;;;;;;;15.35;6.25;;;;;;;24.47;49.24;101469.88;4976324;28;20026;-63
2021/09/24 07:52:46;;;;;;;14.15;7.28;;;;;;;24.54;49.07;101473.50;4975505;28;20037;-63
2021/09/24 07:55:11;;;;;;;15.30;6.35;;;;;;;24.49;49.11;101463.13;4975394;28;20108;-62
2021/09/24 07:57:37;;;;;;;10.70;6.03;;;;;;;24.64;49.12;101474.81;4975997;28;20392;-63
2021/09/24 08:00:04;;;;;;;13.00;6.03;;;;;;;24.76;48.92;101477.78;4975445;28;20379;-63
2021/09/24 08:02:29;;;;;;;13.77;6.63;;;;;;;24.87;48.58;101472.56;4975825;28;20516;-63
2021/09/24 08:04:55;;;;;;;16.77;7.82;;;;;;;25.12;48.51;101474.75;4975745;28;20162;-63
2021/09/24 08:07:20;;;;;;;15.27;6.38;;;;;;;25.18;47.92;101473.91;4960266;28;20117;-63
2021/09/24 08:09:45;;;;;;;10.93;6.10;;;;;;;25.64;47.67;101473.94;4975702;28;20389;-63
2021/09/24 08:12:11;;;;;;;9.82;5.85;;;;;;;25.86;47.32;101486.38;4975771;28;20110;-62
2021/09/24 08:14:36;;;;;;;11.57;6.80;;;;;;;25.87;47.64;101477.97;4976071;28;20031;-60
2021/09/24 08:17:02;;;;;;;21.33;6.45;;;;;;;25.90;47.73;101477.53;4974568;28;20515;-60
2021/09/24 08:19:28;;;;;;;11.45;6.68;;;;;;;25.92;47.68;101480.91;4974562;28;20387;-60
2021/09/24 08:21:53;;;;;;;13.85;5.68;;;;;;;25.98;47.28;101476.44;4975767;28;20170;-60
2021/09/24 08:24:18;;;;;;;10.00;5.18;;;;;;;26.03;47.35;101480.25;4975383;28;20022;-60
2021/09/24 08:26:44;;;;;;;13.85;5.07;;;;;;;26.10;47.33;101468.41;4958202;28;20212;-61
2021/09/24 08:29:09;;;;;;;9.82;4.72;;;;;;;26.17;46.74;101477.50;4975241;28;20031;-61
2021/09/24 08:31:35;;;;;;;6.95;4.40;;;;;;;26.22;46.71;101480.44;4975587;28;20488;-61
2021/09/24 08:34:00;;;;;;;10.52;4.18;;;;;;;26.30;46.73;101482.97;4974140;28;20031;-61
2021/09/24 08:36:26;;;;;;;12.75;4.72;;;;;;;26.33;46.80;101479.75;4975379;28;20357;-61
2021/09/24 08:38:52;;;;;;;10.80;4.97;;;;;;;26.36;46.57;101482.94;4974097;28;20038;-60
2021/09/24 08:41:19;;;;;;;6.18;4.18;;;;;;;26.43;46.85;101491.16;4975451;28;20395;-61
2021/09/24 08:43:48;;;;;;;10.32;4.53;;;;;;;26.35;46.31;101484.00;4975469;28;20027;-60
2021/09/24 08:46:15;;;;;;;9.50;4.28;;;;;;;26.32;46.52;101489.09;4975381;28;20468;-61
2021/09/24 08:48:42;;;;;;;5.85;4.50;;;;;;;26.28;46.12;101485.91;4975660;28;20406;-61
2021/09/24 08:51:08;;;;;;;13.05;4.53;;;;;;;26.27;46.21;101486.97;4991509;28;20037;-60
2021/09/24 08:53:36;;;;;;;8.82;4.15;;;;;;;26.23;46.04;101491.22;4974898;28;20085;-61
2021/09/24 08:56:01;;;;;;;12.63;4.88;;;;;;;26.24;46.54;101494.81;4975299;28;20033;-61
2021/09/24 08:58:27;;;;;;;13.23;4.70;;;;;;;26.23;46.60;101509.59;4974985;28;20023;-60
2021/09/24 09:00:52;;;;;;;8.48;4.05;;;;;;;26.19;46.00;101500.94;4974752;28;20034;-61
2021/09/24 09:03:18;;;;;;;8.60;4.32;;;;;;;26.11;46.32;101498.38;4975025;28;20372;-60
2021/09/24 09:05:48;;;;;;;8.90;4.03;;;;;;;26.10;45.96;101501.38;4973643;28;20030;-61
2021/09/24 09:08:18;;;;;;;4.90;3.50;;;;;;;26.03;46.23;101501.38;4973483;28;20029;-61
2021/09/24 09:10:49;;;;;;;9.68;5.50;;;;;;;25.99;46.26;101502.88;4974704;28;20076;-60
2021/09/24 09:13:15;;;;;;;9.52;3.67;;;;;;;25.99;46.58;101502.88;4974936;28;20109;-60
2021/09/24 09:15:50;;;;;;;7.60;3.65;;;;;;;26.05;46.78;101499.25;4974936;28;20022;-61
2021/09/24 09:18:19;;;;;;;6.38;3.83;;;;;;;26.13;46.07;101493.50;4975100;28;20030;-61
2021/09/24 09:20:46;;;;;;;9.15;3.33;;;;;;;26.22;46.26;101488.66;4975592;28;20023;-60
2021/09/24 09:23:13;;;;;;;12.43;4.30;;;;;;;26.38;45.92;101493.72;4975958;28;20023;-60
2021/09/24 09:25:44;;;;;;;11.40;4.50;;;;;;;26.47;46.07;101495.16;4974104;28;20102;-61
2021/09/24 09:28:23;;;;;;;8.20;4.18;;;;;;;26.53;46.00;101497.88;4975072;28;20383;-60
2021/09/24 09:30:49;;;;;;;8.98;4.45;;;;;;;26.63;45.37;101497.44;4975457;28;20039;-63
2021/09/24 09:33:17;;;;;;;8.23;3.53;;;;;;;26.88;45.56;101494.78;4975501;28;20041;-60
2021/09/24 09:35:51;;;;;;;8.93;3.75;;;;;;;27.11;45.21;101490.41;4974993;28;20023;-60
2021/09/24 09:38:28;;;;;;;5.15;3.20;;;;;;;27.05;45.20;101485.78;4974138;28;20050;-60
2021/09/24 09:40:58;;;;;;;7.30;3.80;;;;;;;26.99;45.42;101491.34;4974844;28;20053;-61
2021/09/24 09:43:31;;;;;;;7.50;3.28;;;;;;;26.92;45.57;101494.13;4979379;28;20042;-60
2021/09/24 09:45:57;;;;;;;6.63;3.63;;;;;;;26.91;45.69;101494.38;4974592;28;20026;-60
2021/09/24 09:48:23;;;;;;;8.05;4.18;;;;;;;26.91;45.52;101500.69;4973403;28;20029;-61
2021/09/24 09:50:49;;;;;;;6.90;3.80;;;;;;;26.89;45.50;101488.22;4974666;28;20027;-60
2021/09/24 09:53:16;;;;;;;7.35;3.28;;;;;;;26.87;45.59;101491.19;4975742;28;20063;-60
2021/09/24 09:56:05;;;;;;;5.50;3.75;;;;;;;26.94;45.54;101489.25;4974281;28;20030;-60
2021/09/24 09:58:36;;;;;;;6.65;3.30;;;;;;;26.93;45.45;101487.56;4975925;28;20487;-60
2021/09/24 10:01:05;;;;;;;4.50;2.95;;;;;;;27.29;44.50;101469.56;4993274;28;20412;-62
2021/09/24 10:03:40;;;;;;;5.90;2.58;;;;;;;27.63;44.41;101474.59;4979316;28;20571;-62
2021/09/24 10:06:25;;;;;;;8.55;2.65;;;;;;;27.91;44.40;101480.47;4978260;28;20034;-60
2021/09/24 10:08:52;;;;;;;5.85;2.13;;;;;;;28.22;43.54;101483.16;4978658;28;20538;-60
2021/09/24 10:11:21;;;;;;;4.43;2.28;;;;;;;28.42;43.25;101473.81;4978460;28;20514;-60
2021/09/24 10:13:58;;;;;;;5.85;2.22;;;;;;;28.87;42.71;101464.94;4978460;28;20031;-60
2021/09/24 10:16:33;;;;;;;3.10;2.22;;;;;;;29.18;42.45;101476.78;4977864;28;20023;-60
2021/09/24 10:18:59;;;;;;;5.95;2.25;;;;;;;29.05;42.50;101460.44;4978072;28;20051;-60
2021/09/24 10:21:25;;;;;;;4.55;1.77;;;;;;;28.94;43.11;101453.81;4977030;28;20559;-60
2021/09/24 10:23:51;;;;;;;5.35;2.03;;;;;;;28.83;42.18;101462.88;4977631;28;20030;-60
2021/09/24 10:26:25;;;;;;;4.53;2.10;;;;;;;28.69;42.78;101466.91;4977070;28;20031;-60
2021/09/24 10:28:55;;;;;;;6.15;2.40;;;;;;;28.61;43.44;101476.31;4977778;28;20018;-60
2021/09/24 10:31:21;;;;;;;8.13;2.08;;;;;;;28.57;43.39;101468.72;4993490;28;20039;-60
2021/09/24 10:33:50;;;;;;;4.20;1.90;;;;;;;28.48;43.22;101464.59;4977594;28;20034;-60
2021/09/24 10:36:40;;;;;;;3.08;2.33;;;;;;;28.40;43.46;101462.16;4977458;28;20023;-60
2021/09/24 10:39:30;;;;;;;4.88;1.90;;;;;;;28.25;43.43;101451.53;4977190;28;20078;-60
2021/09/24 10:42:17;;;;;;;2.72;2.10;;;;;;;28.15;43.31;101449.31;4977538;28;20507;-60
2021/09/24 10:45:06;;;;;;;7.47;2.03;;;;;;;28.19;42.90;101450.53;4979053;28;20027;-61
2021/09/24 10:47:44;;;;;;;7.05;1.98;;;;;;;28.15;42.73;101460.31;4977424;28;20027;-60
2021/09/24 10:50:31;;;;;;;5.05;2.05;;;;;;;28.10;43.39;101446.41;4977407;28;20038;-60
2021/09/24 10:55:38;;;;;;;8.15;2.25;;;;;;;28.03;42.90;101445.63;4978058;28;20034;-60
2021/09/24 10:58:04;;;;;;;4.95;1.95;;;;;;;28.05;42.51;101453.66;4977152;28;20023;-60
2021/09/24 11:00:32;;;;;;;5.13;2.15;;;;;;;28.06;43.28;101450.66;4977619;28;20120;-60
2021/09/24 11:03:10;;;;;;;9.93;2.80;;;;;;;28.08;42.84;101454.06;4978105;28;20089;-60
2021/09/24 11:05:57;;;;;;;6.38;3.20;;;;;;;28.17;42.31;101452.66;4977554;28;20031;-60
2021/09/24 11:08:29;;;;;;;4.68;2.08;;;;;;;28.18;42.31;101454.34;4977370;28;20027;-60
2021/09/24 11:11:20;;;;;;;4.75;2.55;;;;;;;28.18;42.77;101443.34;4977281;28;20042;-61
2021/09/24 11:13:54;;;;;;;7.63;2.50;;;;;;;28.21;42.23;101442.03;4992733;28;20117;-60
2021/09/24 11:16:24;;;;;;;4.20;2.35;;;;;;;28.24;43.33;101439.66;4976265;28;20105;-60
2021/09/24 11:18:54;;;;;;;7.22;2.72;;;;;;;28.25;42.55;101444.09;4992536;28;20023;-60
2021/09/24 11:21:39;;;;;;;8.88;2.28;;;;;;;28.28;43.33;101438.09;4977338;28;20022;-61
2021/09/24 11:24:26;;;;;;;4.00;2.30;;;;;;;28.23;42.70;101429.69;4966691;28;20039;-60
2021/09/24 11:27:12;;;;;;;3.85;2.17;;;;;;;28.21;42.95;101429.09;4992664;28;20109;-60
2021/09/24 11:29:59;;;;;;;4.90;2.20;;;;;;;28.31;43.14;101426.63;4976077;28;20439;-61
2021/09/24 11:32:33;;;;;;;5.25;2.35;;;;;;;29.27;41.45;101415.53;4976973;28;20050;-61
2021/09/24 11:34:59;;;;;;;7.70;2.17;;;;;;;29.24;42.14;101410.47;4976989;28;20027;-60
2021/09/24 11:37:26;;;;;;;3.70;2.00;;;;;;;29.11;42.24;101405.16;4976779;28;20037;-60
2021/09/24 11:39:55;;;;;;;8.30;2.70;;;;;;;28.98;41.56;101402.59;4977254;28;20049;-61
2021/09/24 11:42:23;;;;;;;4.72;1.80;;;;;;;28.88;41.84;101405.94;4977363;28;20461;-60
2021/09/24 11:44:50;;;;;;;4.05;2.45;;;;;;;28.81;41.47;101409.88;4975583;28;20081;-60
2021/09/24 11:47:33;;;;;;;6.82;2.05;;;;;;;28.77;42.47;101405.91;4975589;28;20061;-61
2021/09/24 11:50:04;;;;;;;3.53;1.77;;;;;;;28.72;41.58;101403.84;4992161;28;20039;-61
2021/09/24 11:52:52;;;;;;;6.03;2.00;;;;;;;28.74;42.14;101392.56;4976787;28;20018;-61
2021/09/24 11:55:38;;;;;;;6.30;1.67;;;;;;;28.84;41.92;101401.09;4975315;28;20023;-60
2021/09/24 11:58:12;;;;;;;3.70;1.85;;;;;;;28.82;42.61;101395.84;4976665;28;20102;-60
2021/09/24 12:00:52;;;;;;;7.55;3.08;;;;;;;28.80;42.54;101388.88;4976362;28;20026;-60
2021/09/24 12:03:30;;;;;;;4.93;1.77;;;;;;;28.74;41.90;101389.81;4976372;28;20031;-61
2021/09/24 12:06:10;;;;;;;3.50;1.77;;;;;;;28.69;42.12;101385.00;4975503;28;20373;-60
2021/09/24 12:08:48;;;;;;;8.95;2.33;;;;;;;28.63;42.06;101387.84;4975983;28;20050;-60
2021/09/24 12:11:24;;;;;;;8.73;2.90;;;;;;;28.59;42.74;101373.66;4977091;28;20102;-60
2021/09/24 12:13:52;;;;;;;4.60;2.78;;;;;;;28.63;42.57;101374.06;4991501;28;20023;-60
2021/09/24 12:16:41;;;;;;;7.00;3.08;;;;;;;28.79;41.72;101362.34;4975057;28;20058;-60
2021/09/24 12:19:14;;;;;;;6.57;2.80;;;;;;;29.02;41.39;101372.59;4976138;28;20030;-60
2021/09/24 12:21:40;;;;;;;3.40;2.60;;;;;;;29.20;42.04;101364.25;4975696;28;20026;-59
2021/09/24 12:24:11;;;;;;;6.38;2.60;;;;;;;29.78;40.86;101367.03;4976076;28;20113;-60
2021/09/24 12:26:38;;;;;;;6.57;2.28;;;;;;;30.67;39.96;101357.28;4991714;28;20031;-60
2021/09/24 12:29:12;;;;;;;5.78;2.90;;;;;;;30.37;40.16;101354.78;4975044;28;20018;-61
2021/09/24 12:31:49;;;;;;;4.97;2.13;;;;;;;30.44;40.44;101356.31;4976237;28;20038;-60
2021/09/24 12:34:24;;;;;;;3.88;2.10;;;;;;;30.39;40.40;101350.69;4974740;28;20027;-61
2021/09/24 12:36:55;;;;;;;3.70;2.20;;;;;;;30.24;40.81;101350.34;4975117;28;20047;-60
2021/09/24 12:39:22;;;;;;;6.95;2.58;;;;;;;30.11;41.06;101355.31;4975683;28;20054;-60
2021/09/24 12:41:49;;;;;;;5.05;2.00;;;;;;;29.99;40.89;101358.13;4975102;28;20066;-60
2021/09/24 12:44:15;;;;;;;4.65;1.65;;;;;;;29.88;40.88;101350.69;4976058;28;20062;-61
2021/09/24 12:46:43;;;;;;;6.15;2.28;;;;;;;29.74;40.78;101339.03;4974312;28;20109;-60
2021/09/24 12:49:09;;;;;;;3.85;1.92;;;;;;;29.70;40.78;101356.34;4975127;28;20031;-61
2021/09/24 12:51:35;;;;;;;5.72;2.10;;;;;;;29.60;40.74;101347.81;4973911;28;20039;-61
2021/09/24 12:54:00;;;;;;;5.38;1.92;;;;;;;29.75;40.36;101339.88;4974738;28;20035;-60
2021/09/24 12:56:26;;;;;;;6.72;2.15;;;;;;;29.98;39.78;101339.88;4974783;28;20039;-60
2021/09/24 12:58:56;;;;;;;3.97;2.13;;;;;;;29.98;40.43;101335.16;4974854;28;20018;-60
2021/09/24 13:01:21;;;;;;;6.93;2.15;;;;;;;30.85;38.89;101334.94;4974681;28;20026;-60
2021/09/24 13:03:46;;;;;;;5.28;1.88;;;;;;;30.59;39.09;101344.72;4974757;28;20030;-60
2021/09/24 13:06:12;;;;;;;7.03;2.13;;;;;;;31.19;38.67;101335.78;4975538;28;20126;-61
2021/09/24 13:08:38;;;;;;;6.90;2.08;;;;;;;31.36;38.32;101334.69;4974920;28;20031;-61
2021/09/24 13:11:05;;;;;;;4.85;1.95;;;;;;;31.02;38.67;101331.09;4974916;28;20452;-60
2021/09/24 13:13:30;;;;;;;2.45;1.52;;;;;;;30.85;39.12;101326.63;4974834;28;20499;-60
2021/09/24 13:15:56;;;;;;;2.60;1.83;;;;;;;31.04;38.48;101333.63;4974686;28;20026;-61
2021/09/24 13:18:22;;;;;;;8.85;2.10;;;;;;;31.73;37.59;101321.13;4973639;28;20468;-61
2021/09/24 13:20:51;;;;;;;3.53;1.67;;;;;;;32.16;37.65;101323.09;4990023;28;20499;-60
2021/09/24 13:23:18;;;;;;;3.35;1.70;;;;;;;32.51;36.11;101322.63;4974850;28;20490;-61
2021/09/24 13:25:45;;;;;;;5.82;2.03;;;;;;;32.83;36.40;101306.88;4974961;28;20062;-60
2021/09/24 13:28:10;;;;;;;8.23;2.13;;;;;;;32.56;37.46;101306.88;4974336;28;20484;-61
2021/09/24 13:30:36;;;;;;;2.72;1.70;;;;;;;32.44;36.33;101310.91;4974514;28;20069;-61
2021/09/24 13:33:02;;;;;;;1.70;1.33;;;;;;;32.20;37.24;101297.34;4974356;28;20514;-60
2021/09/24 13:35:28;;;;;;;2.97;1.20;;;;;;;32.53;35.65;101292.66;4978043;28;20388;-60
2021/09/24 13:37:54;;;;;;;3.50;1.70;;;;;;;32.62;36.05;101297.50;4978324;28;20116;-60
2021/09/24 13:40:19;;;;;;;5.35;1.20;;;;;;;32.13;35.84;101287.56;4978519;28;20030;-60
2021/09/24 13:42:44;;;;;;;1.90;1.30;;;;;;;31.79;36.65;101297.09;4977296;28;20049;-60
2021/09/24 13:45:10;;;;;;;4.10;2.05;;;;;;;31.65;35.92;101297.47;4978222;28;20029;-60
2021/09/24 13:47:36;;;;;;;5.18;1.52;;;;;;;31.96;35.35;101286.75;4978200;28;20034;-60
2021/09/24 13:50:02;;;;;;;3.92;1.70;;;;;;;32.03;35.76;101281.88;4993227;28;20037;-60
2021/09/24 13:52:29;;;;;;;2.40;1.02;;;;;;;32.02;35.79;101280.22;4978009;28;20030;-60
2021/09/24 13:54:54;;;;;;;3.25;1.42;;;;;;;31.94;35.76;101283.41;4978284;28;20022;-60
2021/09/24 13:57:19;;;;;;;4.25;0.88;;;;;;;31.61;35.80;101287.97;4978235;28;20053;-61
2021/09/24 13:59:45;;;;;;;3.63;1.50;;;;;;;31.45;35.67;101286.06;4977926;28;20047;-61
2021/09/24 14:02:10;;;;;;;1.77;1.02;;;;;;;31.38;36.08;101285.41;4977886;28;20022;-62